地図

経路データ

SID SEASON NUMBER BASIN SUBBASIN NAME ISO_TIME NATURE LAT LON WMO_WIND WMO_PRES WMO_AGENCY TRACK_TYPE DIST2LAND LANDFALL IFLAG USA_AGENCY USA_ATCF_ID USA_LAT USA_LON USA_RECORD USA_STATUS USA_WIND USA_PRES USA_SSHS USA_R34_NE USA_R34_SE USA_R34_SW USA_R34_NW USA_R50_NE USA_R50_SE USA_R50_SW USA_R50_NW USA_R64_NE USA_R64_SE USA_R64_SW USA_R64_NW USA_POCI USA_ROCI USA_RMW USA_EYE TOKYO_LAT TOKYO_LON TOKYO_GRADE TOKYO_WIND TOKYO_PRES TOKYO_R50_DIR TOKYO_R50_LONG TOKYO_R50_SHORT TOKYO_R30_DIR TOKYO_R30_LONG TOKYO_R30_SHORT TOKYO_LAND CMA_LAT CMA_LON CMA_CAT CMA_WIND CMA_PRES HKO_LAT HKO_LON HKO_CAT HKO_WIND HKO_PRES NEWDELHI_LAT NEWDELHI_LON NEWDELHI_GRADE NEWDELHI_WIND NEWDELHI_PRES NEWDELHI_CI NEWDELHI_DP NEWDELHI_POCI REUNION_LAT REUNION_LON REUNION_TYPE REUNION_WIND REUNION_PRES REUNION_TNUM REUNION_CI REUNION_RMW REUNION_R34_NE REUNION_R34_SE REUNION_R34_SW REUNION_R34_NW REUNION_R50_NE REUNION_R50_SE REUNION_R50_SW REUNION_R50_NW REUNION_R64_NE REUNION_R64_SE REUNION_R64_SW REUNION_R64_NW BOM_LAT BOM_LON BOM_TYPE BOM_WIND BOM_PRES BOM_TNUM BOM_CI BOM_RMW BOM_R34_NE BOM_R34_SE BOM_R34_SW BOM_R34_NW BOM_R50_NE BOM_R50_SE BOM_R50_SW BOM_R50_NW BOM_R64_NE BOM_R64_SE BOM_R64_SW BOM_R64_NW BOM_ROCI BOM_POCI BOM_EYE BOM_POS_METHOD BOM_PRES_METHOD NADI_LAT NADI_LON NADI_CAT NADI_WIND NADI_PRES WELLINGTON_LAT WELLINGTON_LON WELLINGTON_WIND WELLINGTON_PRES DS824_LAT DS824_LON DS824_STAGE DS824_WIND DS824_PRES TD9636_LAT TD9636_LON TD9636_STAGE TD9636_WIND TD9636_PRES TD9635_LAT TD9635_LON TD9635_WIND TD9635_PRES TD9635_ROCI NEUMANN_LAT NEUMANN_LON NEUMANN_CLASS NEUMANN_WIND NEUMANN_PRES MLC_LAT MLC_LON MLC_CLASS MLC_WIND MLC_PRES USA_GUST BOM_GUST BOM_GUST_PER REUNION_GUST REUNION_GUST_PER USA_SEAHGT USA_SEARAD_NE USA_SEARAD_SE USA_SEARAD_SW USA_SEARAD_NW STORM_SPEED STORM_DIR
1942262N23089 1942 53 NI BB NOT_NAMED 1942-09-19 00:00:00 TS 22.8000 89.3000 main 0 0 _________O____ -1 22.8000 89.3000 TC 30 3 268
1942262N23089 1942 53 NI BB NOT_NAMED 1942-09-19 03:00:00 TS 22.7950 89.1600 main 0 0 _________PO___ -1 22.7926 89.0900 TC 30 22.8000 89.3000 1 3 272
1942262N23089 1942 53 NI BB NOT_NAMED 1942-09-19 06:00:00 TS 22.8076 88.9869 main 0 0 _________OP___ -1 22.8000 88.9000 TC 30 22.8189 89.1172 1 3 278
1942262N23089 1942 53 NI BB NOT_NAMED 1942-09-19 09:00:00 TS 22.8372 88.8261 main 0 0 _________PP___ -1 22.8350 88.7425 TC 30 22.8402 88.9375 1 3 285
1942262N23089 1942 53 NI BB NOT_NAMED 1942-09-19 12:00:00 TS 22.8832 88.6820 main 0 0 _________OP___ -1 22.9000 88.6000 TC 30 22.8663 88.7641 1 3 291
1942262N23089 1942 53 NI BB NOT_NAMED 1942-09-19 15:00:00 TS 22.9463 88.5213 main 0 0 _________PO___ -1 22.9925 88.4425 TC 30 22.9000 88.6000 1 3 296
1942262N23089 1942 53 NI BB NOT_NAMED 1942-09-19 18:00:00 TS 23.0229 88.3742 main 0 0 _________OP___ -1 23.1000 88.3000 TC 30 22.9459 88.4484 1 3 301
1942262N23089 1942 53 NI BB NOT_NAMED 1942-09-19 21:00:00 TS 23.0937 88.2524 main 0 0 _________PP___ -1 23.1700 88.1924 TC 30 23.0175 88.3124 1 3 312
1942262N23089 1942 53 NI BB NOT_NAMED 1942-09-20 00:00:00 TS 23.2151 88.1476 main 0 0 _________OP___ -1 23.3000 88.1000 TC 30 23.1303 88.1953 1 4 331
1942262N23089 1942 53 NI BB NOT_NAMED 1942-09-20 03:00:00 TS 23.4350 88.0426 main 0 0 _________PO___ -1 23.5700 87.9851 TC 30 23.3000 88.1000 1 5 340
1942262N23089 1942 53 NI BB NOT_NAMED 1942-09-20 06:00:00 TS 23.7273 87.9442 main 0 0 _________OP___ -1 23.9000 87.9000 TC 30 23.5546 87.9884 1 6 346
1942262N23089 1942 53 NI BB NOT_NAMED 1942-09-20 09:00:00 TS 24.0311 87.8829 main 0 0 _________PP___ -1 24.2000 87.8626 TC 30 23.8623 87.9033 1 6 355
1942262N23089 1942 53 NI BB NOT_NAMED 1942-09-20 12:00:00 TS 24.3444 87.8833 main 0 0 _________OP___ -1 24.5000 87.9000 TC 30 24.1889 87.8666 1 6 7
1942262N23089 1942 53 NI BB NOT_NAMED 1942-09-20 15:00:00 TS 24.6612 87.9562 main 0 0 _________PO___ -1 24.8225 88.0124 TC 30 24.5000 87.9000 1 6 20
1942262N23089 1942 53 NI BB NOT_NAMED 1942-09-20 18:00:00 TS 24.9376 88.1137 main 0 0 _________OP___ -1 25.1000 88.2000 TC 30 24.7751 88.0274 1 6 35
1942262N23089 1942 53 NI BB NOT_NAMED 1942-09-20 21:00:00 TS 25.1564 88.3332 main 0 0 _________PP___ -1 25.2876 88.4425 TC 30 25.0252 88.2240 1 6 48
1942262N23089 1942 53 NI BB NOT_NAMED 1942-09-21 00:00:00 TS 25.3188 88.5793 main 0 0 _________OP___ -1 25.4000 88.7000 TC 30 25.2377 88.4587 1 5 57
1942262N23089 1942 53 NI BB NOT_NAMED 1942-09-21 03:00:00 TS 25.4325 88.8038 main 0 0 _________PO___ -1 25.4649 88.9076 TC 30 25.4000 88.7000 1 4 64
1942262N23089 1942 53 NI BB NOT_NAMED 1942-09-21 06:00:00 TS 25.5001 88.9982 main 0 0 _________OP___ -1 25.5000 89.1000 TC 30 25.5002 88.8964 1 4 71
1942262N23089 1942 53 NI BB NOT_NAMED 1942-09-21 09:00:00 TS 25.5511 89.1966 main 0 0 _________PP___ -1 25.5500 89.3000 TC 30 25.5523 89.0931 1 4 76
1942262N23089 1942 53 NI BB NOT_NAMED 1942-09-21 12:00:00 TS 25.5891 89.3966 main 0 0 _________OP___ -1 25.6000 89.5000 TC 30 25.5783 89.2932 1 4 78
1942262N23089 1942 53 NI BB NOT_NAMED 1942-09-21 15:00:00 TS 25.6250 89.5963 main 0 0 _________PO___ -1 25.6499 89.6925 TC 30 25.6000 89.5000 1 4 78
1942262N23089 1942 53 NI BB NOT_NAMED 1942-09-21 18:00:00 TS 25.6628 89.7948 main 0 0 _________OP___ -1 25.7000 89.9000 TC 30 25.6349 89.7159 1 4 77
1942262N23089 1942 53 NI BB NOT_NAMED 1942-09-21 21:00:00 TS 25.7098 90.0197 main 0 0 _________PP___ -1 25.7501 90.1400 TC 30 25.6828 89.9395 1 4 77
1942262N23089 1942 53 NI BB NOT_NAMED 1942-09-22 00:00:00 TS 25.7596 90.2456 main 0 0 _________OP___ -1 25.8000 90.4000 TC 30 25.7394 90.1684 1 4 75
1942262N23089 1942 53 NI BB NOT_NAMED 1942-09-22 03:00:00 NR 25.8000 90.4000 main 0 __________O___ -1 TC 25.8000 90.4000 1 3 74

IBTrACS Databaseについて

本データベースは、米国NOAAが公開する1842年以降の世界の熱帯低気圧のベストトラックデータアーカイブInternational Best Track Archive for Climate Stewardship (IBTrACS)を、ウェブで閲覧しやすい形式に変換したものです。

最終更新日:2021-12-01